Darstellungsparameter: Aktuell verwendete Einstellungen:
Skalierung der Graphiken ... ?
xyx+y,   Skalierungsfaktor:      Skalierung: Modus: x, Faktor: 1
Darstellungszeitraum ... ?
Vom - - bis: - -   Zeitraum: 23.08.2010 - 22.09.2010
Min/Max/Avg-Anzeige ... ?
Zeige MMA aktuell
Zeige MMA Monat
Zeige MMA alles
Zeige --A aktuell
Zeige --A Monat
Zeige --A alles
Keine MMA-Anzeige
MMA:
Average (ber die Originaldaten)
MMA-Basis: 23.08.2010 - 22.09.2010
Quicknavigation für Darstellung... ?
Tage:      1T, 2T, 3T, 5T -1T -2T -3T -5T +1T +2T +3T +5T
Wochen: 1W, 2W, 3W -1W -2W -3W +1W +2W +3W
Monate: 1M, 3M, 6M -1M -3M -6M +1M +3M +6M
Jahre:    1J, 3J, 5J, 10J -1J -3J -5J -10J +1J +3J +5J +10J
Nutze für die Darstellung ... ?
Originaldaten oder ...
Mittelwerte Minima Maxima auf...
Stundenbasis Tagesbasis Wochenbasis
Monatsbasis Jahresbasis      Datenbasis: Mittelwerte auf Stundenbasis
Darstellen als:
Statistik (Auto) Statistik J:M      Darstellung:
Zur Graphik,    zurück zur Übersicht aller Sensoren.
 
Tabellarische Datenbersicht: ?
 
Sensor: Nr:Datum:Temp:Abs-Feuchte:Windchill:Wind:
Aussen-T/F 1 23-08-2010 00:00:00 20.88 C 12.01 g/m*3 20.88 C 0 km/h
2 23-08-2010 01:00:00 20.38 C 12.16 g/m*3 20.38 C 0 km/h
3 23-08-2010 02:00:00 20.02 C 12.32 g/m*3 20.02 C 0 km/h
4 23-08-2010 03:00:00 19.82 C 12.31 g/m*3 19.82 C 0 km/h
5 23-08-2010 04:00:00 19.52 C 12.33 g/m*3 19.52 C 0 km/h
6 23-08-2010 05:00:00 19.44 C 12.21 g/m*3 19.44 C 0 km/h
7 23-08-2010 06:00:00 19.48 C 12.34 g/m*3 19.48 C 0 km/h
8 23-08-2010 07:00:00 19.92 C 12.49 g/m*3 19.92 C 0 km/h
9 23-08-2010 08:00:00 19.74 C 13.31 g/m*3 19.74 C 0 km/h
10 23-08-2010 09:00:00 19.44 C 14.52 g/m*3 19.44 C 0 km/h
11 23-08-2010 10:00:00 20.64 C 15.07 g/m*3 20.64 C 0 km/h
12 23-08-2010 11:00:00 22.26 C 14.78 g/m*3 22.26 C 0 km/h
13 23-08-2010 12:00:00 23.08 C 15.61 g/m*3 23.08 C 0 km/h
14 23-08-2010 13:00:00 23.68 C 14.36 g/m*3 23.68 C 0 km/h
15 23-08-2010 14:00:00 24.34 C 14.28 g/m*3 24.34 C 0 km/h
16 23-08-2010 15:00:00 25.86 C 12.32 g/m*3 25.86 C 0 km/h
17 23-08-2010 16:00:00 25.94 C 11.4 g/m*3 25.94 C 0 km/h
18 23-08-2010 17:00:00 23.58 C 11.98 g/m*3 23.58 C 0 km/h
19 23-08-2010 18:00:00 21.12 C 13.76 g/m*3 21.12 C 0 km/h
20 23-08-2010 19:00:00 20.76 C 13.77 g/m*3 20.76 C 0 km/h
21 23-08-2010 20:00:00 20.34 C 12.94 g/m*3 20.34 C 0 km/h
22 23-08-2010 21:00:00 19.8 C 12.61 g/m*3 19.8 C 0 km/h
23 23-08-2010 22:00:00 19.58 C 12.24 g/m*3 19.58 C 0 km/h
24 23-08-2010 23:00:00 19.3 C 11.94 g/m*3 19.3 C 0 km/h
25 24-08-2010 00:00:00 19.18 C 12.09 g/m*3 19.18 C 0 km/h
Sensor: Nr:Datum:Temp:Abs-Feuchte:Windchill:Wind:
Aussen-T/F 26 24-08-2010 01:00:00 19.2 C 12.43 g/m*3 19.2 C 0 km/h
27 24-08-2010 02:00:00 19.68 C 12.28 g/m*3 19.68 C 0 km/h
28 24-08-2010 03:00:00 18.34 C 11.85 g/m*3 18.34 C 0 km/h
29 24-08-2010 04:00:00 18.06 C 9.53 g/m*3 18.06 C 0 km/h
30 24-08-2010 05:00:00 17.24 C 9.51 g/m*3 17.24 C 0 km/h
31 24-08-2010 06:00:00 17.08 C 9.48 g/m*3 17.08 C 0 km/h
32 24-08-2010 07:00:00 16.44 C 9.23 g/m*3 16.44 C 0 km/h
33 24-08-2010 08:00:00 16.16 C 8.45 g/m*3 16.16 C 0 km/h
34 24-08-2010 09:00:00 16.76 C 7.3 g/m*3 16.76 C 0 km/h
35 24-08-2010 10:00:00 17.88 C 7.23 g/m*3 17.88 C 0 km/h
36 24-08-2010 11:00:00 19.08 C 6.88 g/m*3 19.08 C 0 km/h
37 24-08-2010 12:00:00 20.04 C 6.34 g/m*3 20.04 C 0 km/h
38 24-08-2010 13:00:00 21 C 5.94 g/m*3 21 C 0 km/h
39 24-08-2010 14:00:00 21.46 C 5.49 g/m*3 21.46 C 0 km/h
40 24-08-2010 15:00:00 21.82 C 5.11 g/m*3 21.82 C 0 km/h
41 24-08-2010 16:00:00 23.04 C 4.61 g/m*3 23.04 C 0 km/h
42 24-08-2010 17:00:00 23.22 C 4.7 g/m*3 23.22 C 0 km/h
43 24-08-2010 18:00:00 22.92 C 5.11 g/m*3 22.92 C 0 km/h
44 24-08-2010 19:00:00 21.68 C 5.18 g/m*3 21.68 C 0 km/h
45 24-08-2010 20:00:00 19.76 C 5.79 g/m*3 19.76 C 0 km/h
46 24-08-2010 21:00:00 18.28 C 6.12 g/m*3 18.28 C 0 km/h
47 24-08-2010 22:00:00 17.4 C 6.28 g/m*3 17.4 C 0 km/h
48 24-08-2010 23:00:00 16.78 C 6.43 g/m*3 16.78 C 0 km/h
49 25-08-2010 00:00:00 16.16 C 6.55 g/m*3 16.16 C 0 km/h
50 25-08-2010 01:00:00 15.52 C 6.8 g/m*3 15.52 C 0 km/h
Sensor: Nr:Datum:Temp:Abs-Feuchte:Windchill:Wind:
Aussen-T/F 51 25-08-2010 02:00:00 14.66 C 7.11 g/m*3 14.66 C 0 km/h
52 25-08-2010 03:00:00 13.76 C 7.56 g/m*3 13.76 C 0 km/h
53 25-08-2010 04:00:00 13.4 C 7.7 g/m*3 13.4 C 0 km/h
54 25-08-2010 05:00:00 13.38 C 7.52 g/m*3 13.38 C 0 km/h
55 25-08-2010 06:00:00 12.94 C 7.71 g/m*3 12.94 C 0 km/h
56 25-08-2010 07:00:00 12.76 C 7.84 g/m*3 12.76 C 0 km/h
57 25-08-2010 08:00:00 13.54 C 7.86 g/m*3 13.54 C 0 km/h
58 25-08-2010 09:00:00 14.92 C 7.91 g/m*3 14.92 C 0 km/h
59 25-08-2010 10:00:00 16.3 C 7.8 g/m*3 16.3 C 0 km/h
60 25-08-2010 11:00:00 17.9 C 7.82 g/m*3 17.9 C 0 km/h
61 25-08-2010 12:00:00 20 C 7.19 g/m*3 20 C 0 km/h
62 25-08-2010 13:00:00 20.82 C 6.67 g/m*3 20.82 C 0 km/h
63 25-08-2010 14:00:00 21.46 C 6.43 g/m*3 21.46 C 0 km/h
64 25-08-2010 15:00:00 23.54 C 6.1 g/m*3 23.54 C 0 km/h
65 25-08-2010 16:00:00 24.46 C 5.67 g/m*3 24.46 C 0 km/h
66 25-08-2010 17:00:00 23.2 C 6.65 g/m*3 23.2 C 0 km/h
67 25-08-2010 18:00:00 21.9 C 7.1 g/m*3 21.9 C 0 km/h
68 25-08-2010 19:00:00 20.22 C 7.91 g/m*3 20.22 C 0 km/h
69 25-08-2010 20:00:00 19.04 C 8.23 g/m*3 19.04 C 0 km/h
70 25-08-2010 21:00:00 18.12 C 8.35 g/m*3 18.12 C 0 km/h
71 25-08-2010 22:00:00 17.56 C 8.5 g/m*3 17.56 C 0 km/h
72 25-08-2010 23:00:00 17.3 C 8.81 g/m*3 17.3 C 0 km/h
73 26-08-2010 00:00:00 17.28 C 9.06 g/m*3 17.28 C 0 km/h
74 26-08-2010 01:00:00 17.48 C 9.11 g/m*3 17.48 C 0 km/h
75 26-08-2010 02:00:00 16.88 C 9.97 g/m*3 16.88 C 0 km/h
Sensor: Nr:Datum:Temp:Abs-Feuchte:Windchill:Wind:
Aussen-T/F 76 26-08-2010 03:00:00 16.86 C 10.04 g/m*3 16.86 C 0 km/h
77 26-08-2010 04:00:00 16.94 C 9.86 g/m*3 16.94 C 0 km/h
78 26-08-2010 05:00:00 18.28 C 10.31 g/m*3 18.28 C 0 km/h
79 26-08-2010 06:00:00 18.18 C 10.53 g/m*3 18.18 C 0 km/h
80 26-08-2010 07:00:00 19.26 C 10.69 g/m*3 19.26 C 0 km/h
81 26-08-2010 08:00:00 20.2 C 11.12 g/m*3 20.2 C 0 km/h
82 26-08-2010 09:00:00 21.52 C 11.33 g/m*3 21.52 C 0 km/h
83 26-08-2010 10:00:00 22.76 C 11.19 g/m*3 22.76 C 0 km/h
84 26-08-2010 11:00:00 23.76 C 11.16 g/m*3 23.76 C 0 km/h
85 26-08-2010 12:00:00 23.54 C 11.15 g/m*3 23.54 C 0 km/h
86 26-08-2010 13:00:00 22.96 C 11.2 g/m*3 22.96 C 0 km/h
87 26-08-2010 14:00:00 23.8 C 11.19 g/m*3 23.8 C 0 km/h
88 26-08-2010 15:00:00 23.68 C 11.32 g/m*3 23.68 C 0 km/h
89 26-08-2010 16:00:00 23.94 C 11.28 g/m*3 23.94 C 0 km/h
90 26-08-2010 17:00:00 23.62 C 11.29 g/m*3 23.62 C 0 km/h
91 26-08-2010 18:00:00 23.18 C 11.67 g/m*3 23.18 C 0 km/h
92 26-08-2010 19:00:00 21.66 C 13.36 g/m*3 21.66 C 0 km/h
93 26-08-2010 20:00:00 20.94 C 14.49 g/m*3 20.94 C 0 km/h
94 26-08-2010 21:00:00 20.42 C 14.03 g/m*3 20.42 C 0 km/h
95 26-08-2010 22:00:00 19.76 C 14.62 g/m*3 19.76 C 0 km/h
96 26-08-2010 23:00:00 19.44 C 14.95 g/m*3 19.44 C 0 km/h
97 27-08-2010 00:00:00 18.98 C 14.91 g/m*3 18.98 C 0 km/h
98 27-08-2010 01:00:00 18.76 C 14.97 g/m*3 18.76 C 0 km/h
99 27-08-2010 02:00:00 18.62 C 14.98 g/m*3 18.62 C 0 km/h
100 27-08-2010 03:00:00 18.38 C 14.77 g/m*3 18.38 C 0 km/h
Sensor: Nr:Datum:Temp:Abs-Feuchte:Windchill:Wind:
Aussen-T/F 101 27-08-2010 04:00:00 18.34 C 14.73 g/m*3 18.34 C 0 km/h
102 27-08-2010 05:00:00 18.4 C 14.88 g/m*3 18.4 C 0 km/h
103 27-08-2010 06:00:00 18.82 C 15.32 g/m*3 18.82 C 0 km/h
104 27-08-2010 07:00:00 18.68 C 15.03 g/m*3 18.68 C 0 km/h
105 27-08-2010 08:00:00 18.58 C 14.94 g/m*3 18.58 C 0 km/h
106 27-08-2010 09:00:00 19.26 C 15.06 g/m*3 19.26 C 0 km/h
107 27-08-2010 10:00:00 19.32 C 14.35 g/m*3 19.32 C 0 km/h
108 27-08-2010 11:00:00 18.16 C 13.58 g/m*3 18.16 C 0 km/h
109 27-08-2010 12:00:00 20.1 C 13.52 g/m*3 20.1 C 0 km/h
110 27-08-2010 13:00:00 22.92 C 12.6 g/m*3 22.92 C 0 km/h
111 27-08-2010 14:00:00 20.76 C 12.07 g/m*3 20.76 C 0 km/h
112 27-08-2010 15:00:00 18.92 C 13.49 g/m*3 18.92 C 0 km/h
113 27-08-2010 16:00:00 21.9 C 12.89 g/m*3 21.9 C 0 km/h
114 27-08-2010 17:00:00 21.3 C 11.71 g/m*3 21.3 C 0 km/h
115 27-08-2010 18:00:00 16.8 C 12.01 g/m*3 16.8 C 0 km/h
116 27-08-2010 19:00:00 15.64 C 10.93 g/m*3 15.64 C 0 km/h
117 27-08-2010 20:00:00 15.12 C 10.44 g/m*3 15.12 C 0 km/h
118 27-08-2010 21:00:00 14.58 C 10.17 g/m*3 14.58 C 0 km/h
119 27-08-2010 22:00:00 14.74 C 10.02 g/m*3 14.74 C 0 km/h
120 27-08-2010 23:00:00 13.96 C 9.34 g/m*3 13.96 C 0 km/h
121 28-08-2010 00:00:00 13.78 C 9.21 g/m*3 13.78 C 0 km/h
122 28-08-2010 01:00:00 13.1 C 9.88 g/m*3 13.1 C 0 km/h
123 28-08-2010 02:00:00 13.14 C 9.82 g/m*3 13.14 C 0 km/h
124 28-08-2010 03:00:00 13.1 C 9.56 g/m*3 13.1 C 0 km/h
125 28-08-2010 04:00:00 12.54 C 9.3 g/m*3 12.54 C 0 km/h
Sensor: Nr:Datum:Temp:Abs-Feuchte:Windchill:Wind:
Aussen-T/F 126 28-08-2010 05:00:00 12.12 C 9.15 g/m*3 12.12 C 0 km/h
127 28-08-2010 06:00:00 11.58 C 8.76 g/m*3 11.58 C 0 km/h
128 28-08-2010 07:00:00 11.72 C 8.88 g/m*3 11.72 C 0 km/h
129 28-08-2010 08:00:00 13.08 C 8.94 g/m*3 13.08 C 0 km/h
130 28-08-2010 09:00:00 14.22 C 8.58 g/m*3 14.22 C 0 km/h
131 28-08-2010 10:00:00 15.14 C 8.35 g/m*3 15.14 C 0 km/h
132 28-08-2010 11:00:00 16.44 C 7.81 g/m*3 16.44 C 0 km/h
133 28-08-2010 12:00:00 15.42 C 8.71 g/m*3 15.42 C 0 km/h
134 28-08-2010 13:00:00 16.24 C 10.62 g/m*3 16.24 C 0 km/h
135 28-08-2010 14:00:00 15.6 C 7.69 g/m*3 15.6 C 0 km/h
136 28-08-2010 15:00:00 16.72 C 7.46 g/m*3 16.72 C 0 km/h
137 28-08-2010 16:00:00 15.1 C 8.08 g/m*3 15.1 C 0 km/h
138 28-08-2010 17:00:00 15.6 C 8.67 g/m*3 15.6 C 0 km/h
139 28-08-2010 18:00:00 17.56 C 7.42 g/m*3 17.56 C 0 km/h
140 28-08-2010 19:00:00 15.26 C 8.34 g/m*3 15.26 C 0 km/h
141 28-08-2010 20:00:00 13.1 C 9.04 g/m*3 13.1 C 0 km/h
142 28-08-2010 21:00:00 12.46 C 9.12 g/m*3 12.46 C 0 km/h
143 28-08-2010 22:00:00 12.24 C 8.96 g/m*3 12.24 C 0 km/h
144 28-08-2010 23:00:00 12.36 C 8.72 g/m*3 12.36 C 0 km/h
145 29-08-2010 00:00:00 11.9 C 8.47 g/m*3 11.9 C 0 km/h
146 29-08-2010 01:00:00 11.5 C 8.45 g/m*3 11.5 C 0 km/h
147 29-08-2010 02:00:00 11.74 C 8.54 g/m*3 11.74 C 0 km/h
148 29-08-2010 03:00:00 11.76 C 8.48 g/m*3 11.76 C 0 km/h
149 29-08-2010 04:00:00 11.5 C 8.39 g/m*3 11.5 C 0 km/h
150 29-08-2010 05:00:00 11.74 C 8.33 g/m*3 11.74 C 0 km/h
Sensor: Nr:Datum:Temp:Abs-Feuchte:Windchill:Wind:
Aussen-T/F 151 29-08-2010 06:00:00 12.1 C 8.3 g/m*3 12.1 C 0 km/h
152 29-08-2010 07:00:00 12.2 C 8.33 g/m*3 12.2 C 0 km/h
153 29-08-2010 08:00:00 12.44 C 8.35 g/m*3 12.44 C 0 km/h
154 29-08-2010 09:00:00 14 C 8.18 g/m*3 14 C 0 km/h
155 29-08-2010 10:00:00 15.4 C 8.04 g/m*3 15.4 C 0 km/h
156 29-08-2010 11:00:00 16.26 C 7.92 g/m*3 16.26 C 0 km/h
157 29-08-2010 12:00:00 15.12 C 9.04 g/m*3 15.12 C 0 km/h
158 29-08-2010 13:00:00 16.04 C 8.71 g/m*3 16.04 C 0 km/h
159 29-08-2010 14:00:00 16.46 C 8.4 g/m*3 16.46 C 0 km/h
160 29-08-2010 15:00:00 15.08 C 8.92 g/m*3 15.08 C 0 km/h
161 29-08-2010 16:00:00 15.76 C 8.51 g/m*3 15.76 C 0 km/h
162 29-08-2010 17:00:00 14.96 C 8.31 g/m*3 14.96 C 0 km/h
163 29-08-2010 18:00:00 13.06 C 9.31 g/m*3 13.06 C 0 km/h
164 29-08-2010 19:00:00 12 C 9.29 g/m*3 12 C 0 km/h
165 29-08-2010 20:00:00 11.78 C 8.96 g/m*3 11.78 C 0 km/h
166 29-08-2010 21:00:00 11.64 C 8.71 g/m*3 11.64 C 0 km/h
167 29-08-2010 22:00:00 9.2 C 8.02 g/m*3 9.2 C 0 km/h
168 29-08-2010 23:00:00 9.12 C 8.16 g/m*3 9.12 C 0 km/h
169 30-08-2010 00:00:00 9.2 C 7.98 g/m*3 9.2 C 0 km/h
170 30-08-2010 01:00:00 9.94 C 7.84 g/m*3 9.94 C 0 km/h
171 30-08-2010 02:00:00 10.52 C 7.77 g/m*3 10.52 C 0 km/h
172 30-08-2010 03:00:00 10.82 C 7.66 g/m*3 10.82 C 0 km/h
173 30-08-2010 04:00:00 10.26 C 7.99 g/m*3 10.26 C 0 km/h
174 30-08-2010 05:00:00 9.62 C 8.02 g/m*3 9.62 C 0 km/h
175 30-08-2010 06:00:00 10.06 C 8.47 g/m*3 10.06 C 0 km/h
Sensor: Nr:Datum:Temp:Abs-Feuchte:Windchill:Wind:
Aussen-T/F 176 30-08-2010 07:00:00 9.96 C 8.4 g/m*3 9.96 C 0 km/h
177 30-08-2010 08:00:00 10.82 C 8.63 g/m*3 10.82 C 0 km/h
178 30-08-2010 09:00:00 10.98 C 8.64 g/m*3 10.98 C 0 km/h
179 30-08-2010 10:00:00 11.86 C 8.83 g/m*3 11.86 C 0 km/h
180 30-08-2010 11:00:00 13 C 8.32 g/m*3 13 C 0 km/h
181 30-08-2010 12:00:00 14.02 C 7.63 g/m*3 14.02 C 0 km/h
182 30-08-2010 13:00:00 16.04 C 6.77 g/m*3 16.04 C 0 km/h
183 30-08-2010 14:00:00 16.28 C 7.73 g/m*3 16.28 C 0 km/h
184 30-08-2010 15:00:00 17.48 C 7.8 g/m*3 17.48 C 0 km/h
185 30-08-2010 16:00:00 15.86 C 9.16 g/m*3 15.86 C 0 km/h
186 30-08-2010 17:00:00 15.04 C 9.23 g/m*3 15.04 C 0 km/h
187 30-08-2010 18:00:00 14.32 C 8.76 g/m*3 14.32 C 0 km/h
188 30-08-2010 19:00:00 14.04 C 8.97 g/m*3 14.04 C 0 km/h
189 30-08-2010 20:00:00 13.76 C 8.72 g/m*3 13.76 C 0 km/h
190 30-08-2010 21:00:00 12.72 C 9.56 g/m*3 12.72 C 0 km/h
191 30-08-2010 22:00:00 12.72 C 9.92 g/m*3 12.72 C 0 km/h
192 30-08-2010 23:00:00 12.3 C 9.69 g/m*3 12.3 C 0 km/h
193 31-08-2010 00:00:00 12.22 C 9.62 g/m*3 12.22 C 0 km/h
194 31-08-2010 01:00:00 12.42 C 9.45 g/m*3 12.42 C 0 km/h
195 31-08-2010 02:00:00 12.36 C 9.31 g/m*3 12.36 C 0 km/h
196 31-08-2010 03:00:00 12.1 C 9.07 g/m*3 12.1 C 0 km/h
197 31-08-2010 04:00:00 11.52 C 9.06 g/m*3 11.52 C 0 km/h
198 31-08-2010 05:00:00 11.38 C 9.04 g/m*3 11.38 C 0 km/h
199 31-08-2010 06:00:00 11.7 C 9.22 g/m*3 11.7 C 0 km/h
200 31-08-2010 07:00:00 12.2 C 9.09 g/m*3 12.2 C 0 km/h
Sensor: Nr:Datum:Temp:Abs-Feuchte:Windchill:Wind:
Aussen-T/F 201 31-08-2010 08:00:00 12.64 C 9.07 g/m*3 12.64 C 0 km/h
202 31-08-2010 09:00:00 13.58 C 8.86 g/m*3 13.58 C 0 km/h
203 31-08-2010 10:00:00 14.14 C 8.35 g/m*3 14.14 C 0 km/h
204 31-08-2010 11:00:00 15.6 C 8.09 g/m*3 15.6 C 0 km/h
205 31-08-2010 12:00:00 16.88 C 7.93 g/m*3 16.88 C 0 km/h
206 31-08-2010 13:00:00 17.96 C 6.99 g/m*3 17.96 C 0 km/h
207 31-08-2010 14:00:00 20.16 C 6.45 g/m*3 20.16 C 0 km/h
208 31-08-2010 15:00:00 21.2 C 5.86 g/m*3 21.2 C 0 km/h
209 31-08-2010 16:00:00 21.46 C 5.64 g/m*3 21.46 C 0 km/h
210 31-08-2010 17:00:00 21.82 C 5.57 g/m*3 21.82 C 0 km/h
211 31-08-2010 18:00:00 22.26 C 5.67 g/m*3 22.26 C 0 km/h
212 31-08-2010 19:00:00 20.32 C 6.55 g/m*3 20.32 C 0 km/h
213 31-08-2010 20:00:00 16.38 C 7.17 g/m*3 16.38 C 0 km/h
214 31-08-2010 21:00:00 14.44 C 7.61 g/m*3 14.44 C 0 km/h
215 31-08-2010 22:00:00 13.24 C 8.1 g/m*3 13.24 C 0 km/h
216 31-08-2010 23:00:00 12.32 C 8.09 g/m*3 12.32 C 0 km/h
217 01-09-2010 00:00:00 11.58 C 8.08 g/m*3 11.58 C 0 km/h
218 01-09-2010 01:00:00 10.98 C 8.1 g/m*3 10.98 C 0 km/h
219 01-09-2010 02:00:00 10.36 C 7.96 g/m*3 10.36 C 0 km/h
220 01-09-2010 03:00:00 9.74 C 7.97 g/m*3 9.74 C 0 km/h
221 01-09-2010 04:00:00 9.14 C 7.86 g/m*3 9.14 C 0 km/h
222 01-09-2010 05:00:00 8.92 C 7.95 g/m*3 8.92 C 0 km/h
223 01-09-2010 06:00:00 8.94 C 8.04 g/m*3 8.94 C 0 km/h
224 01-09-2010 07:00:00 9.02 C 7.98 g/m*3 9.02 C 0 km/h
225 01-09-2010 08:00:00 9.26 C 8.05 g/m*3 9.26 C 0 km/h
Sensor: Nr:Datum:Temp:Abs-Feuchte:Windchill:Wind:
Aussen-T/F 226 01-09-2010 09:00:00 10.22 C 8.14 g/m*3 10.22 C 0 km/h
227 01-09-2010 10:00:00 12.1 C 8.56 g/m*3 12.1 C 0 km/h
228 01-09-2010 11:00:00 14.26 C 8.78 g/m*3 14.26 C 0 km/h
229 01-09-2010 12:00:00 17.24 C 8.54 g/m*3 17.24 C 0 km/h
230 01-09-2010 13:00:00 19.52 C 7.96 g/m*3 19.52 C 0 km/h
231 01-09-2010 14:00:00 21.18 C 7.03 g/m*3 21.18 C 0 km/h
232 01-09-2010 15:00:00 23.6 C 6 g/m*3 23.6 C 0 km/h
233 01-09-2010 16:00:00 23.8 C 6.02 g/m*3 23.8 C 0 km/h
234 01-09-2010 17:00:00 22.04 C 6.38 g/m*3 22.04 C 0 km/h
235 01-09-2010 18:00:00 21.1 C 6.96 g/m*3 21.1 C 0 km/h
236 01-09-2010 19:00:00 19.62 C 7.88 g/m*3 19.62 C 0 km/h
237 01-09-2010 20:00:00 17.36 C 8.72 g/m*3 17.36 C 0 km/h
238 01-09-2010 21:00:00 16.24 C 8.85 g/m*3 16.24 C 0 km/h
239 01-09-2010 22:00:00 15.55 C 8.82 g/m*3 15.55 C 0 km/h
240 01-09-2010 23:00:00 14.16 C 8.28 g/m*3 14.16 C 0 km/h
241 02-09-2010 00:00:00 13.02 C 8.22 g/m*3 13.02 C 0 km/h
242 02-09-2010 01:00:00 12.32 C 8.37 g/m*3 12.32 C 0 km/h
243 02-09-2010 02:00:00 11.6 C 8.56 g/m*3 11.6 C 0 km/h
244 02-09-2010 03:00:00 11 C 8.31 g/m*3 11 C 0 km/h
245 02-09-2010 04:00:00 10.44 C 8.29 g/m*3 10.44 C 0 km/h
246 02-09-2010 05:00:00 10.32 C 8.5 g/m*3 10.32 C 0 km/h
247 02-09-2010 06:00:00 10.34 C 8.6 g/m*3 10.34 C 0 km/h
248 02-09-2010 07:00:00 10.68 C 8.81 g/m*3 10.68 C 0 km/h
249 02-09-2010 08:00:00 11.34 C 8.96 g/m*3 11.34 C 0 km/h
250 02-09-2010 09:00:00 12.4 C 8.98 g/m*3 12.4 C 0 km/h
Sensor: Nr:Datum:Temp:Abs-Feuchte:Windchill:Wind:
Aussen-T/F 251 02-09-2010 10:00:00 14.02 C 8.65 g/m*3 14.02 C 0 km/h
252 02-09-2010 11:00:00 15.46 C 9.02 g/m*3 15.46 C 0 km/h
253 02-09-2010 12:00:00 18.66 C 8.75 g/m*3 18.66 C 0 km/h
254 02-09-2010 13:00:00 20.84 C 7.37 g/m*3 20.84 C 0 km/h
255 02-09-2010 14:00:00 22.2 C 7.22 g/m*3 22.2 C 0 km/h
256 02-09-2010 15:00:00 21.42 C 6.91 g/m*3 21.42 C 0 km/h
257 02-09-2010 16:00:00 20.6 C 6.91 g/m*3 20.6 C 0 km/h
258 02-09-2010 17:00:00 19.54 C 7.13 g/m*3 19.54 C 0 km/h
259 02-09-2010 18:00:00 18.66 C 7.41 g/m*3 18.66 C 0 km/h
260 02-09-2010 19:00:00 17.64 C 8.93 g/m*3 17.64 C 0 km/h
261 02-09-2010 20:00:00 15.14 C 10.01 g/m*3 15.14 C 0 km/h
262 02-09-2010 21:00:00 14.42 C 9.85 g/m*3 14.42 C 0 km/h
263 02-09-2010 22:00:00 13.84 C 9.34 g/m*3 13.84 C 0 km/h
264 02-09-2010 23:00:00 12.98 C 9.2 g/m*3 12.98 C 0 km/h
265 03-09-2010 00:00:00 12.42 C 9.1 g/m*3 12.42 C 0 km/h
266 03-09-2010 01:00:00 11.82 C 8.92 g/m*3 11.82 C 0 km/h
267 03-09-2010 02:00:00 11.24 C 8.76 g/m*3 11.24 C 0 km/h
268 03-09-2010 03:00:00 10.72 C 8.63 g/m*3 10.72 C 0 km/h
269 03-09-2010 04:00:00 10.34 C 8.6 g/m*3 10.34 C 0 km/h
270 03-09-2010 05:00:00 10.4 C 8.75 g/m*3 10.4 C 0 km/h
271 03-09-2010 06:00:00 11.08 C 9.24 g/m*3 11.08 C 0 km/h
272 03-09-2010 07:00:00 11.36 C 9.32 g/m*3 11.36 C 0 km/h
273 03-09-2010 08:00:00 11.64 C 9.34 g/m*3 11.64 C 0 km/h
274 03-09-2010 09:00:00 12.44 C 9.29 g/m*3 12.44 C 0 km/h
275 03-09-2010 10:00:00 13.58 C 9.22 g/m*3 13.58 C 0 km/h
Sensor: Nr:Datum:Temp:Abs-Feuchte:Windchill:Wind:
Aussen-T/F 276 03-09-2010 11:00:00 15.9 C 8.94 g/m*3 15.9 C 0 km/h
277 03-09-2010 12:00:00 17.86 C 8.47 g/m*3 17.86 C 0 km/h
278 03-09-2010 13:00:00 19.68 C 8.18 g/m*3 19.68 C 0 km/h
279 03-09-2010 14:00:00 20.4 C 7.64 g/m*3 20.4 C 0 km/h
280 03-09-2010 15:00:00 22.78 C 7.02 g/m*3 22.78 C 0 km/h
281 03-09-2010 16:00:00 25.12 C 6.58 g/m*3 25.12 C 0 km/h
282 03-09-2010 17:00:00 24.12 C 6.53 g/m*3 24.12 C 0 km/h
283 03-09-2010 18:00:00 22.7 C 8.12 g/m*3 22.7 C 0 km/h
284 03-09-2010 19:00:00 20.7 C 8.86 g/m*3 20.7 C 0 km/h
285 03-09-2010 20:00:00 18.62 C 8.25 g/m*3 18.62 C 0 km/h
286 03-09-2010 21:00:00 16.32 C 8.56 g/m*3 16.32 C 0 km/h
287 03-09-2010 22:00:00 15.36 C 8.86 g/m*3 15.36 C 0 km/h
288 03-09-2010 23:00:00 15.34 C 9.22 g/m*3 15.34 C 0 km/h
289 04-09-2010 00:00:00 15.1 C 9.29 g/m*3 15.1 C 0 km/h
290 04-09-2010 01:00:00 14.82 C 9.41 g/m*3 14.82 C 0 km/h
291 04-09-2010 02:00:00 14.28 C 9.4 g/m*3 14.28 C 0 km/h
292 04-09-2010 03:00:00 13.72 C 9.41 g/m*3 13.72 C 0 km/h
293 04-09-2010 04:00:00 13.2 C 9.48 g/m*3 13.2 C 0 km/h
294 04-09-2010 05:00:00 13.1 C 9.59 g/m*3 13.1 C 0 km/h
295 04-09-2010 06:00:00 12.54 C 9.3 g/m*3 12.54 C 0 km/h
296 04-09-2010 07:00:00 12.08 C 9.25 g/m*3 12.08 C 0 km/h
297 04-09-2010 08:00:00 12.8 C 9.77 g/m*3 12.8 C 0 km/h
298 04-09-2010 09:00:00 14.44 C 9.96 g/m*3 14.44 C 0 km/h
299 04-09-2010 10:00:00 16.3 C 9.49 g/m*3 16.3 C 0 km/h
300 04-09-2010 11:00:00 18.88 C 8.77 g/m*3 18.88 C 0 km/h
Sensor: Nr:Datum:Temp:Abs-Feuchte:Windchill:Wind:
Aussen-T/F 301 04-09-2010 12:00:00 18.86 C 7.89 g/m*3 18.86 C 0 km/h
302 04-09-2010 13:00:00 19.58 C 7.62 g/m*3 19.58 C 0 km/h
303 04-09-2010 14:00:00 22.2 C 6.71 g/m*3 22.2 C 0 km/h
304 04-09-2010 15:00:00 22.88 C 6.29 g/m*3 22.88 C 0 km/h
305 04-09-2010 16:00:00 22.42 C 5.53 g/m*3 22.42 C 0 km/h
306 04-09-2010 17:00:00 23.12 C 4.88 g/m*3 23.12 C 0 km/h
307 04-09-2010 18:00:00 22.74 C 4.37 g/m*3 22.74 C 0 km/h
308 04-09-2010 19:00:00 19.74 C 5.55 g/m*3 19.74 C 0 km/h
309 04-09-2010 20:00:00 16.14 C 6.54 g/m*3 16.14 C 0 km/h
310 04-09-2010 21:00:00 14.92 C 6.94 g/m*3 14.92 C 0 km/h
311 04-09-2010 22:00:00 14.16 C 7.26 g/m*3 14.16 C 0 km/h
312 04-09-2010 23:00:00 13.12 C 7.59 g/m*3 13.12 C 0 km/h
313 05-09-2010 00:00:00 12.16 C 7.62 g/m*3 12.16 C 0 km/h
314 05-09-2010 01:00:00 11.22 C 7.53 g/m*3 11.22 C 0 km/h
315 05-09-2010 02:00:00 10.44 C 7.52 g/m*3 10.44 C 0 km/h
316 05-09-2010 03:00:00 9.72 C 7.4 g/m*3 9.72 C 0 km/h
317 05-09-2010 04:00:00 9.12 C 7.27 g/m*3 9.12 C 0 km/h
318 05-09-2010 05:00:00 8.64 C 7.27 g/m*3 8.64 C 0 km/h
319 05-09-2010 06:00:00 8.08 C 7.25 g/m*3 8.08 C 0 km/h
320 05-09-2010 07:00:00 8.4 C 7.52 g/m*3 8.4 C 0 km/h
321 05-09-2010 08:00:00 9.82 C 7.91 g/m*3 9.82 C 0 km/h
322 05-09-2010 09:00:00 11.1 C 7.88 g/m*3 11.1 C 0 km/h
323 05-09-2010 10:00:00 12.36 C 8.44 g/m*3 12.36 C 0 km/h
324 05-09-2010 11:00:00 15.42 C 8.16 g/m*3 15.42 C 0 km/h
325 05-09-2010 12:00:00 18.02 C 6.52 g/m*3 18.02 C 0 km/h
Sensor: Nr:Datum:Temp:Abs-Feuchte:Windchill:Wind:
Aussen-T/F 326 05-09-2010 13:00:00 20.14 C 5.92 g/m*3 20.14 C 0 km/h
327 05-09-2010 14:00:00 23.5 C 5.2 g/m*3 23.5 C 0 km/h
328 05-09-2010 15:00:00 24.16 C 4.83 g/m*3 24.16 C 0 km/h
329 05-09-2010 16:00:00 24.4 C 4.67 g/m*3 24.4 C 0 km/h
330 05-09-2010 17:00:00 24.6 C 5.04 g/m*3 24.6 C 0 km/h
331 05-09-2010 18:00:00 24.84 C 5.29 g/m*3 24.84 C 0 km/h
332 05-09-2010 19:00:00 19.38 C 6.4 g/m*3 19.38 C 0 km/h
333 05-09-2010 20:00:00 16.44 C 6.38 g/m*3 16.44 C 0 km/h
334 05-09-2010 21:00:00 14.9 C 6.81 g/m*3 14.9 C 0 km/h
335 05-09-2010 22:00:00 14.12 C 7.1 g/m*3 14.12 C 0 km/h
336 05-09-2010 23:00:00 13.94 C 6.92 g/m*3 13.94 C 0 km/h
337 06-09-2010 00:00:00 13.22 C 7.08 g/m*3 13.22 C 0 km/h
338 06-09-2010 01:00:00 12.36 C 7.11 g/m*3 12.36 C 0 km/h
339 06-09-2010 02:00:00 11.62 C 7.2 g/m*3 11.62 C 0 km/h
340 06-09-2010 03:00:00 11.1 C 7.15 g/m*3 11.1 C 0 km/h
341 06-09-2010 04:00:00 10.7 C 7.09 g/m*3 10.7 C 0 km/h
342 06-09-2010 05:00:00 10.24 C 7.02 g/m*3 10.24 C 0 km/h
343 06-09-2010 06:00:00 9.56 C 7 g/m*3 9.56 C 0 km/h
344 06-09-2010 07:00:00 9.28 C 7.07 g/m*3 9.28 C 0 km/h
345 06-09-2010 08:00:00 9.68 C 7.22 g/m*3 9.68 C 0 km/h
346 06-09-2010 09:00:00 10.94 C 7.52 g/m*3 10.94 C 0 km/h
347 06-09-2010 10:00:00 13.48 C 7.52 g/m*3 13.48 C 0 km/h
348 06-09-2010 11:00:00 16.32 C 7.14 g/m*3 16.32 C 0 km/h
349 06-09-2010 12:00:00 18.64 C 5.58 g/m*3 18.64 C 0 km/h
350 06-09-2010 13:00:00 20.24 C 5.4 g/m*3 20.24 C 0 km/h
Sensor: Nr:Datum:Temp:Abs-Feuchte:Windchill:Wind:
Aussen-T/F 351 06-09-2010 14:00:00 22.34 C 4.51 g/m*3 22.34 C 0 km/h
352 06-09-2010 15:00:00 24 C 4.35 g/m*3 24 C 0 km/h
353 06-09-2010 16:00:00 23.88 C 4.32 g/m*3 23.88 C 0 km/h
354 06-09-2010 17:00:00 24.42 C 4.46 g/m*3 24.42 C 0 km/h
355 06-09-2010 18:00:00 21.44 C 5.34 g/m*3 21.44 C 0 km/h
356 06-09-2010 19:00:00 18.72 C 5.87 g/m*3 18.72 C 0 km/h
357 06-09-2010 20:00:00 17.1 C 5.62 g/m*3 17.1 C 0 km/h
358 06-09-2010 21:00:00 16.22 C 5.44 g/m*3 16.22 C 0 km/h
359 06-09-2010 22:00:00 15.5 C 5.6 g/m*3 15.5 C 0 km/h
360 06-09-2010 23:00:00 15.2 C 5.63 g/m*3 15.2 C 0 km/h
361 07-09-2010 00:00:00 15.38 C 5.51 g/m*3 15.38 C 0 km/h
362 07-09-2010 01:00:00 15.42 C 5.39 g/m*3 15.42 C 0 km/h
363 07-09-2010 02:00:00 15.46 C 5.38 g/m*3 15.46 C 0 km/h
364 07-09-2010 03:00:00 14.34 C 6.03 g/m*3 14.34 C 0 km/h
365 07-09-2010 04:00:00 13.06 C 7.01 g/m*3 13.06 C 0 km/h
366 07-09-2010 05:00:00 12.98 C 7.11 g/m*3 12.98 C 0 km/h
367 07-09-2010 06:00:00 12.5 C 7.04 g/m*3 12.5 C 0 km/h
368 07-09-2010 07:00:00 12.12 C 7.09 g/m*3 12.12 C 0 km/h
369 07-09-2010 08:00:00 11.56 C 8.11 g/m*3 11.56 C 0 km/h
370 07-09-2010 09:00:00 11.46 C 8.41 g/m*3 11.46 C 0 km/h
371 07-09-2010 10:00:00 11.46 C 8.88 g/m*3 11.46 C 0 km/h
372 07-09-2010 11:00:00 11.64 C 9.21 g/m*3 11.64 C 0 km/h
373 07-09-2010 12:00:00 12.42 C 9.5 g/m*3 12.42 C 0 km/h
374 07-09-2010 13:00:00 12.78 C 9.31 g/m*3 12.78 C 0 km/h
375 07-09-2010 14:00:00 13.36 C 9.37 g/m*3 13.36 C 0 km/h
Sensor: Nr:Datum:Temp:Abs-Feuchte:Windchill:Wind:
Aussen-T/F 376 07-09-2010 15:00:00 14.58 C 9.12 g/m*3 14.58 C 0 km/h
377 07-09-2010 16:00:00 15.52 C 9.11 g/m*3 15.52 C 0 km/h
378 07-09-2010 17:00:00 14.88 C 9.06 g/m*3 14.88 C 0 km/h
379 07-09-2010 18:00:00 13.98 C 9.08 g/m*3 13.98 C 0 km/h
380 07-09-2010 19:00:00 13.78 C 9.38 g/m*3 13.78 C 0 km/h
381 07-09-2010 20:00:00 13.24 C 9.55 g/m*3 13.24 C 0 km/h
382 07-09-2010 21:00:00 12.96 C 9.89 g/m*3 12.96 C 0 km/h
383 07-09-2010 22:00:00 12.86 C 10.03 g/m*3 12.86 C 0 km/h
384 07-09-2010 23:00:00 12.92 C 10.16 g/m*3 12.92 C 0 km/h
385 08-09-2010 00:00:00 12.88 C 10.24 g/m*3 12.88 C 0 km/h
386 08-09-2010 01:00:00 13 C 10.37 g/m*3 13 C 0 km/h
387 08-09-2010 02:00:00 13.2 C 10.61 g/m*3 13.2 C 0 km/h
388 08-09-2010 03:00:00 13.56 C 10.92 g/m*3 13.56 C 0 km/h
389 08-09-2010 04:00:00 13.56 C 10.92 g/m*3 13.56 C 0 km/h
390 08-09-2010 05:00:00 14.16 C 11.4 g/m*3 14.16 C 0 km/h
391 08-09-2010 06:00:00 14.36 C 11.44 g/m*3 14.36 C 0 km/h
392 08-09-2010 07:00:00 14.22 C 11.25 g/m*3 14.22 C 0 km/h
393 08-09-2010 08:00:00 14.22 C 11.25 g/m*3 14.22 C 0 km/h
394 08-09-2010 09:00:00 15.22 C 11.62 g/m*3 15.22 C 0 km/h
395 08-09-2010 10:00:00 15.52 C 11.41 g/m*3 15.52 C 0 km/h
396 08-09-2010 11:00:00 15.24 C 11.03 g/m*3 15.24 C 0 km/h
397 08-09-2010 12:00:00 14.74 C 11.26 g/m*3 14.74 C 0 km/h
398 08-09-2010 13:00:00 16.22 C 12.12 g/m*3 16.22 C 0 km/h
399 08-09-2010 14:00:00 17.58 C 11.56 g/m*3 17.58 C 0 km/h
400 08-09-2010 15:00:00 17.94 C 11.17 g/m*3 17.94 C 0 km/h
Sensor: Nr:Datum:Temp:Abs-Feuchte:Windchill:Wind:
Aussen-T/F 401 08-09-2010 16:00:00 18.54 C 10.69 g/m*3 18.54 C 0 km/h
402 08-09-2010 17:00:00 19.88 C 10.23 g/m*3 19.88 C 0 km/h
403 08-09-2010 18:00:00 19.06 C 10.24 g/m*3 19.06 C 0 km/h
404 08-09-2010 19:00:00 18.2 C 10.54 g/m*3 18.2 C 0 km/h
405 08-09-2010 20:00:00 16.8 C 10.52 g/m*3 16.8 C 0 km/h
406 08-09-2010 21:00:00 15.72 C 9.7 g/m*3 15.72 C 0 km/h
407 08-09-2010 22:00:00 14.78 C 9.79 g/m*3 14.78 C 0 km/h
408 08-09-2010 23:00:00 14.48 C 10.01 g/m*3 14.48 C 0 km/h
409 09-09-2010 00:00:00 14.38 C 10.2 g/m*3 14.38 C 0 km/h
410 09-09-2010 01:00:00 15.04 C 10.08 g/m*3 15.04 C 0 km/h
411 09-09-2010 02:00:00 15.14 C 9.93 g/m*3 15.14 C 0 km/h
412 09-09-2010 03:00:00 15.32 C 9.78 g/m*3 15.32 C 0 km/h
413 09-09-2010 04:00:00 15.22 C 9.33 g/m*3 15.22 C 0 km/h
414 09-09-2010 05:00:00 14.9 C 9.02 g/m*3 14.9 C 0 km/h
415 09-09-2010 06:00:00 14.78 C 8.88 g/m*3 14.78 C 0 km/h
416 09-09-2010 07:00:00 14.58 C 9.07 g/m*3 14.58 C 0 km/h
417 09-09-2010 08:00:00 14.8 C 9.1 g/m*3 14.8 C 0 km/h
418 09-09-2010 09:00:00 15.26 C 9.09 g/m*3 15.26 C 0 km/h
419 09-09-2010 10:00:00 16.76 C 9.1 g/m*3 16.76 C 0 km/h
420 09-09-2010 11:00:00 17.78 C 8.88 g/m*3 17.78 C 0 km/h
421 09-09-2010 12:00:00 18.64 C 8.17 g/m*3 18.64 C 0 km/h
422 09-09-2010 13:00:00 18.8 C 8.21 g/m*3 18.8 C 0 km/h
423 09-09-2010 14:00:00 18.98 C 8.59 g/m*3 18.98 C 0 km/h
424 09-09-2010 15:00:00 19.38 C 9.13 g/m*3 19.38 C 0 km/h
425 09-09-2010 16:00:00 17.1 C 10.92 g/m*3 17.1 C 0 km/h
Sensor: Nr:Datum:Temp:Abs-Feuchte:Windchill:Wind:
Aussen-T/F 426 09-09-2010 17:00:00 17.92 C 11.62 g/m*3 17.92 C 0 km/h
427 09-09-2010 18:00:00 17.7 C 10.47 g/m*3 17.7 C 0 km/h
428 09-09-2010 19:00:00 16.54 C 9.46 g/m*3 16.54 C 0 km/h
429 09-09-2010 20:00:00 15.4 C 9.78 g/m*3 15.4 C 0 km/h
430 09-09-2010 21:00:00 14.8 C 10.26 g/m*3 14.8 C 0 km/h
431 09-09-2010 22:00:00 14.74 C 10.17 g/m*3 14.74 C 0 km/h
432 09-09-2010 23:00:00 14.98 C 9.71 g/m*3 14.98 C 0 km/h
433 10-09-2010 00:00:00 14.66 C 9.92 g/m*3 14.66 C 0 km/h
434 10-09-2010 01:00:00 14 C 9.77 g/m*3 14 C 0 km/h
435 10-09-2010 02:00:00 13.9 C 9.95 g/m*3 13.9 C 0 km/h
436 10-09-2010 03:00:00 13.9 C 10.07 g/m*3 13.9 C 0 km/h
437 10-09-2010 04:00:00 13.84 C 10.25 g/m*3 13.84 C 0 km/h
438 10-09-2010 05:00:00 13.06 C 9.99 g/m*3 13.06 C 0 km/h
439 10-09-2010 06:00:00 13.12 C 10.24 g/m*3 13.12 C 0 km/h
440 10-09-2010 07:00:00 13.18 C 9.84 g/m*3 13.18 C 0 km/h
441 10-09-2010 08:00:00 13.32 C 9.95 g/m*3 13.32 C 0 km/h
442 10-09-2010 09:00:00 14.6 C 9.54 g/m*3 14.6 C 0 km/h
443 10-09-2010 10:00:00 16.16 C 9.35 g/m*3 16.16 C 0 km/h
444 10-09-2010 11:00:00 17.88 C 9.21 g/m*3 17.88 C 0 km/h
445 10-09-2010 12:00:00 18.74 C 9.18 g/m*3 18.74 C 0 km/h
446 10-09-2010 13:00:00 19.18 C 8.66 g/m*3 19.18 C 0 km/h
447 10-09-2010 14:00:00 19.94 C 8.75 g/m*3 19.94 C 0 km/h
448 10-09-2010 15:00:00 20.82 C 8.59 g/m*3 20.82 C 0 km/h
449 10-09-2010 16:00:00 21.1 C 8.44 g/m*3 21.1 C 0 km/h
450 10-09-2010 17:00:00 20.18 C 8.98 g/m*3 20.18 C 0 km/h
Sensor: Nr:Datum:Temp:Abs-Feuchte:Windchill:Wind:
Aussen-T/F 451 10-09-2010 18:00:00 17.86 C 10.21 g/m*3 17.86 C 0 km/h
452 10-09-2010 19:00:00 16.26 C 11.43 g/m*3 16.26 C 0 km/h
453 10-09-2010 20:00:00 15.68 C 11.57 g/m*3 15.68 C 0 km/h
454 10-09-2010 21:00:00 15.8 C 11.68 g/m*3 15.8 C 0 km/h
455 10-09-2010 22:00:00 15.68 C 11.44 g/m*3 15.68 C 0 km/h
456 10-09-2010 23:00:00 15.46 C 11.18 g/m*3 15.46 C 0 km/h
457 11-09-2010 00:00:00 15.14 C 10.86 g/m*3 15.14 C 0 km/h
458 11-09-2010 01:00:00 15 C 10.8 g/m*3 15 C 0 km/h
459 11-09-2010 02:00:00 14.74 C 10.73 g/m*3 14.74 C 0 km/h
460 11-09-2010 03:00:00 14.08 C 10.42 g/m*3 14.08 C 0 km/h
461 11-09-2010 04:00:00 13.14 C 9.86 g/m*3 13.14 C 0 km/h
462 11-09-2010 05:00:00 12.64 C 9.78 g/m*3 12.64 C 0 km/h
463 11-09-2010 06:00:00 12.74 C 9.91 g/m*3 12.74 C 0 km/h
464 11-09-2010 07:00:00 12.16 C 9.54 g/m*3 12.16 C 0 km/h
465 11-09-2010 08:00:00 13.04 C 10.23 g/m*3 13.04 C 0 km/h
466 11-09-2010 09:00:00 13.76 C 10.55 g/m*3 13.76 C 0 km/h
467 11-09-2010 10:00:00 15.66 C 11.32 g/m*3 15.66 C 0 km/h
468 11-09-2010 11:00:00 18.24 C 11.37 g/m*3 18.24 C 0 km/h
469 11-09-2010 12:00:00 19.9 C 9.59 g/m*3 19.9 C 0 km/h
470 11-09-2010 13:00:00 21.76 C 8.81 g/m*3 21.76 C 0 km/h
471 11-09-2010 14:00:00 24.2 C 8.14 g/m*3 24.2 C 0 km/h
472 11-09-2010 15:00:00 26.04 C 7.86 g/m*3 26.04 C 0 km/h
473 11-09-2010 16:00:00 26.34 C 8.19 g/m*3 26.34 C 0 km/h
474 11-09-2010 17:00:00 27.62 C 8.31 g/m*3 27.62 C 0 km/h
475 11-09-2010 18:00:00 26.06 C 9.28 g/m*3 26.06 C 0 km/h
Sensor: Nr:Datum:Temp:Abs-Feuchte:Windchill:Wind:
Aussen-T/F 476 11-09-2010 19:00:00 21.76 C 9.72 g/m*3 21.76 C 0 km/h
477 11-09-2010 20:00:00 19.34 C 9.51 g/m*3 19.34 C 0 km/h
478 11-09-2010 21:00:00 18.1 C 10.01 g/m*3 18.1 C 0 km/h
479 11-09-2010 22:00:00 17.2 C 10.28 g/m*3 17.2 C 0 km/h
480 11-09-2010 23:00:00 16.56 C 10.4 g/m*3 16.56 C 0 km/h
481 12-09-2010 00:00:00 16.06 C 10.42 g/m*3 16.06 C 0 km/h
482 12-09-2010 01:00:00 15.34 C 10.34 g/m*3 15.34 C 0 km/h
483 12-09-2010 02:00:00 14.88 C 10.39 g/m*3 14.88 C 0 km/h
484 12-09-2010 03:00:00 14.46 C 10.2 g/m*3 14.46 C 0 km/h
485 12-09-2010 04:00:00 14.1 C 10.07 g/m*3 14.1 C 0 km/h
486 12-09-2010 05:00:00 13.76 C 9.98 g/m*3 13.76 C 0 km/h
487 12-09-2010 06:00:00 13.52 C 9.93 g/m*3 13.52 C 0 km/h
488 12-09-2010 07:00:00 13.7 C 10.14 g/m*3 13.7 C 0 km/h
489 12-09-2010 08:00:00 14.26 C 10.3 g/m*3 14.26 C 0 km/h
490 12-09-2010 09:00:00 14.84 C 10.51 g/m*3 14.84 C 0 km/h
491 12-09-2010 10:00:00 16.94 C 11.16 g/m*3 16.94 C 0 km/h
492 12-09-2010 11:00:00 20.02 C 10.69 g/m*3 20.02 C 0 km/h
493 12-09-2010 12:00:00 21.62 C 10.75 g/m*3 21.62 C 0 km/h
494 12-09-2010 13:00:00 24.4 C 9.84 g/m*3 24.4 C 0 km/h
495 12-09-2010 14:00:00 23.86 C 9.2 g/m*3 23.86 C 0 km/h
496 12-09-2010 15:00:00 19.32 C 8.87 g/m*3 19.32 C 0 km/h
497 12-09-2010 16:00:00 17.78 C 9.19 g/m*3 17.78 C 0 km/h
498 12-09-2010 17:00:00 16.2 C 9.68 g/m*3 16.2 C 0 km/h
499 12-09-2010 18:00:00 14.92 C 10.59 g/m*3 14.92 C 0 km/h
500 12-09-2010 19:00:00 14.26 C 10.79 g/m*3 14.26 C 0 km/h
Sensor: Nr:Datum:Temp:Abs-Feuchte:Windchill:Wind:
Aussen-T/F 501 12-09-2010 20:00:00 13.82 C 10.81 g/m*3 13.82 C 0 km/h
502 12-09-2010 21:00:00 13.78 C 10.97 g/m*3 13.78 C 0 km/h
503 12-09-2010 22:00:00 13.78 C 11.07 g/m*3 13.78 C 0 km/h
504 12-09-2010 23:00:00 13.58 C 10.93 g/m*3 13.58 C 0 km/h
505 13-09-2010 00:00:00 13.68 C 11 g/m*3 13.68 C 0 km/h
506 13-09-2010 01:00:00 13.7 C 11.01 g/m*3 13.7 C 0 km/h
507 13-09-2010 02:00:00 13.52 C 10.89 g/m*3 13.52 C 0 km/h
508 13-09-2010 03:00:00 13.26 C 10.58 g/m*3 13.26 C 0 km/h
509 13-09-2010 04:00:00 13 C 10.21 g/m*3 13 C 0 km/h
510 13-09-2010 05:00:00 13.26 C 9.77 g/m*3 13.26 C 0 km/h
511 13-09-2010 06:00:00 13.3 C 9.57 g/m*3 13.3 C 0 km/h
512 13-09-2010 07:00:00 12.72 C 9.18 g/m*3 12.72 C 0 km/h
513 13-09-2010 08:00:00 13.04 C 9.62 g/m*3 13.04 C 0 km/h
514 13-09-2010 09:00:00 13.98 C 9.47 g/m*3 13.98 C 0 km/h
515 13-09-2010 10:00:00 15.32 C 9.05 g/m*3 15.32 C 0 km/h
516 13-09-2010 11:00:00 16.5 C 8.57 g/m*3 16.5 C 0 km/h
517 13-09-2010 12:00:00 17.24 C 7.93 g/m*3 17.24 C 0 km/h
518 13-09-2010 13:00:00 18.94 C 7.53 g/m*3 18.94 C 0 km/h
519 13-09-2010 14:00:00 20.18 C 6.95 g/m*3 20.18 C 0 km/h
520 13-09-2010 15:00:00 20.8 C 7.1 g/m*3 20.8 C 0 km/h
521 13-09-2010 16:00:00 21.56 C 6.93 g/m*3 21.56 C 0 km/h
522 13-09-2010 17:00:00 20.48 C 7.96 g/m*3 20.48 C 0 km/h
523 13-09-2010 18:00:00 18.22 C 8.62 g/m*3 18.22 C 0 km/h
524 13-09-2010 19:00:00 16.92 C 8.55 g/m*3 16.92 C 0 km/h
525 13-09-2010 20:00:00 15.24 C 8.9 g/m*3 15.24 C 0 km/h
Sensor: Nr:Datum:Temp:Abs-Feuchte:Windchill:Wind:
Aussen-T/F 526 13-09-2010 21:00:00 14.52 C 8.97 g/m*3 14.52 C 0 km/h
527 13-09-2010 22:00:00 13.7 C 8.86 g/m*3 13.7 C 0 km/h
528 13-09-2010 23:00:00 13.14 C 8.85 g/m*3 13.14 C 0 km/h
529 14-09-2010 00:00:00 12.82 C 9.2 g/m*3 12.82 C 0 km/h
530 14-09-2010 01:00:00 12.8 C 9.27 g/m*3 12.8 C 0 km/h
531 14-09-2010 02:00:00 13.1 C 9.33 g/m*3 13.1 C 0 km/h
532 14-09-2010 03:00:00 13.36 C 9.23 g/m*3 13.36 C 0 km/h
533 14-09-2010 04:00:00 12.94 C 9.42 g/m*3 12.94 C 0 km/h
534 14-09-2010 05:00:00 12.96 C 9.84 g/m*3 12.96 C 0 km/h
535 14-09-2010 06:00:00 13.9 C 9.28 g/m*3 13.9 C 0 km/h
536 14-09-2010 07:00:00 14.06 C 8.93 g/m*3 14.06 C 0 km/h
537 14-09-2010 08:00:00 14.1 C 9.32 g/m*3 14.1 C 0 km/h
538 14-09-2010 09:00:00 15.16 C 9.06 g/m*3 15.16 C 0 km/h
539 14-09-2010 10:00:00 16.1 C 9.07 g/m*3 16.1 C 0 km/h
540 14-09-2010 11:00:00 17.06 C 9.15 g/m*3 17.06 C 0 km/h
541 14-09-2010 12:00:00 18.44 C 9.18 g/m*3 18.44 C 0 km/h
542 14-09-2010 13:00:00 19.98 C 9.22 g/m*3 19.98 C 0 km/h
543 14-09-2010 14:00:00 19.66 C 8.84 g/m*3 19.66 C 0 km/h
544 14-09-2010 15:00:00 20.4 C 8.63 g/m*3 20.4 C 0 km/h
545 14-09-2010 16:00:00 20.68 C 7.88 g/m*3 20.68 C 0 km/h
546 14-09-2010 17:00:00 20.14 C 7.46 g/m*3 20.14 C 0 km/h
547 14-09-2010 18:00:00 19.34 C 7.81 g/m*3 19.34 C 0 km/h
548 14-09-2010 19:00:00 18.8 C 7.73 g/m*3 18.8 C 0 km/h
549 14-09-2010 20:00:00 18.6 C 7.7 g/m*3 18.6 C 0 km/h
550 14-09-2010 21:00:00 18.54 C 7.77 g/m*3 18.54 C 0 km/h
Sensor: Nr:Datum:Temp:Abs-Feuchte:Windchill:Wind:
Aussen-T/F 551 14-09-2010 22:00:00 18.5 C 7.83 g/m*3 18.5 C 0 km/h
552 14-09-2010 23:00:00 18.22 C 7.91 g/m*3 18.22 C 0 km/h
553 15-09-2010 00:00:00 18.02 C 7.87 g/m*3 18.02 C 0 km/h
554 15-09-2010 01:00:00 18.18 C 7.67 g/m*3 18.18 C 0 km/h
555 15-09-2010 02:00:00 18.32 C 7.64 g/m*3 18.32 C 0 km/h
556 15-09-2010 03:00:00 18.06 C 8.23 g/m*3 18.06 C 0 km/h
557 15-09-2010 04:00:00 17.7 C 9.11 g/m*3 17.7 C 0 km/h
558 15-09-2010 05:00:00 15 C 9.75 g/m*3 15 C 0 km/h
559 15-09-2010 06:00:00 12.78 C 10.09 g/m*3 12.78 C 0 km/h
560 15-09-2010 07:00:00 12.74 C 10.29 g/m*3 12.74 C 0 km/h
561 15-09-2010 08:00:00 12.7 C 10.35 g/m*3 12.7 C 0 km/h
562 15-09-2010 09:00:00 12.92 C 10.36 g/m*3 12.92 C 0 km/h
563 15-09-2010 10:00:00 14.06 C 9.95 g/m*3 14.06 C 0 km/h
564 15-09-2010 11:00:00 15.02 C 8.86 g/m*3 15.02 C 0 km/h
565 15-09-2010 12:00:00 16.5 C 7.02 g/m*3 16.5 C 0 km/h
566 15-09-2010 13:00:00 17.24 C 6.31 g/m*3 17.24 C 0 km/h
567 15-09-2010 14:00:00 18.38 C 5.66 g/m*3 18.38 C 0 km/h
568 15-09-2010 15:00:00 19.52 C 5.75 g/m*3 19.52 C 0 km/h
569 15-09-2010 16:00:00 19.52 C 5.98 g/m*3 19.52 C 0 km/h
570 15-09-2010 17:00:00 19.68 C 5.8 g/m*3 19.68 C 0 km/h
571 15-09-2010 18:00:00 17.84 C 5.32 g/m*3 17.84 C 0 km/h
572 15-09-2010 19:00:00 16.6 C 5.65 g/m*3 16.6 C 0 km/h
573 15-09-2010 20:00:00 15.84 C 6.26 g/m*3 15.84 C 0 km/h
574 15-09-2010 21:00:00 15.18 C 6.38 g/m*3 15.18 C 0 km/h
575 15-09-2010 22:00:00 14.96 C 5.96 g/m*3 14.96 C 0 km/h
Sensor: Nr:Datum:Temp:Abs-Feuchte:Windchill:Wind:
Aussen-T/F 576 15-09-2010 23:00:00 14.86 C 5.64 g/m*3 14.86 C 0 km/h
577 16-09-2010 00:00:00 14.18 C 5.9 g/m*3 14.18 C 0 km/h
578 16-09-2010 01:00:00 14.1 C 5.41 g/m*3 14.1 C 0 km/h
579 16-09-2010 02:00:00 13.94 C 5.79 g/m*3 13.94 C 0 km/h
580 16-09-2010 03:00:00 13.84 C 6.71 g/m*3 13.84 C 0 km/h
581 16-09-2010 04:00:00 13.58 C 6.98 g/m*3 13.58 C 0 km/h
582 16-09-2010 05:00:00 13.36 C 7.26 g/m*3 13.36 C 0 km/h
583 16-09-2010 06:00:00 12.44 C 8.08 g/m*3 12.44 C 0 km/h
584 16-09-2010 07:00:00 11.78 C 8.68 g/m*3 11.78 C 0 km/h
585 16-09-2010 08:00:00 11.86 C 8.83 g/m*3 11.86 C 0 km/h
586 16-09-2010 09:00:00 12.64 C 9.25 g/m*3 12.64 C 0 km/h
587 16-09-2010 10:00:00 14.12 C 8.65 g/m*3 14.12 C 0 km/h
588 16-09-2010 11:00:00 15.26 C 8.23 g/m*3 15.26 C 0 km/h
589 16-09-2010 12:00:00 17.02 C 7.68 g/m*3 17.02 C 0 km/h
590 16-09-2010 13:00:00 17.32 C 7.17 g/m*3 17.32 C 0 km/h
591 16-09-2010 14:00:00 15.28 C 8.71 g/m*3 15.28 C 0 km/h
592 16-09-2010 15:00:00 17.22 C 9.15 g/m*3 17.22 C 0 km/h
593 16-09-2010 16:00:00 16.36 C 8.49 g/m*3 16.36 C 0 km/h
594 16-09-2010 17:00:00 15.3 C 9.51 g/m*3 15.3 C 0 km/h
595 16-09-2010 18:00:00 14.9 C 8.95 g/m*3 14.9 C 0 km/h
596 16-09-2010 19:00:00 13.42 C 9.68 g/m*3 13.42 C 0 km/h
597 16-09-2010 20:00:00 12.84 C 10.02 g/m*3 12.84 C 0 km/h
598 16-09-2010 21:00:00 12.62 C 10.08 g/m*3 12.62 C 0 km/h
599 16-09-2010 22:00:00 12.2 C 9.58 g/m*3 12.2 C 0 km/h
600 16-09-2010 23:00:00 12.1 C 9.29 g/m*3 12.1 C 0 km/h
Sensor: Nr:Datum:Temp:Abs-Feuchte:Windchill:Wind:
Aussen-T/F 601 17-09-2010 00:00:00 12.16 C 9.24 g/m*3 12.16 C 0 km/h
602 17-09-2010 01:00:00 12.06 C 9.26 g/m*3 12.06 C 0 km/h
603 17-09-2010 02:00:00 11.96 C 9.29 g/m*3 11.96 C 0 km/h
604 17-09-2010 03:00:00 12.06 C 8.94 g/m*3 12.06 C 0 km/h
605 17-09-2010 04:00:00 11.94 C 8.73 g/m*3 11.94 C 0 km/h
606 17-09-2010 05:00:00 11.2 C 8.23 g/m*3 11.2 C 0 km/h
607 17-09-2010 06:00:00 10.6 C 8.59 g/m*3 10.6 C 0 km/h
608 17-09-2010 07:00:00 10.02 C 8.15 g/m*3 10.02 C 0 km/h
609 17-09-2010 08:00:00 10.22 C 7.66 g/m*3 10.22 C 0 km/h
610 17-09-2010 09:00:00 10.86 C 7.28 g/m*3 10.86 C 0 km/h
611 17-09-2010 10:00:00 12.06 C 7.55 g/m*3 12.06 C 0 km/h
612 17-09-2010 11:00:00 13.72 C 7.56 g/m*3 13.72 C 0 km/h
613 17-09-2010 12:00:00 15.7 C 6.58 g/m*3 15.7 C 0 km/h
614 17-09-2010 13:00:00 16.66 C 5.9 g/m*3 16.66 C 0 km/h
615 17-09-2010 14:00:00 17.62 C 5.29 g/m*3 17.62 C 0 km/h
616 17-09-2010 15:00:00 17.48 C 5.06 g/m*3 17.48 C 0 km/h
617 17-09-2010 16:00:00 19.06 C 4.94 g/m*3 19.06 C 0 km/h
618 17-09-2010 17:00:00 19.46 C 4.45 g/m*3 19.46 C 0 km/h
619 17-09-2010 18:00:00 16.66 C 6.1 g/m*3 16.66 C 0 km/h
620 17-09-2010 19:00:00 15.24 C 6.69 g/m*3 15.24 C 0 km/h
621 17-09-2010 20:00:00 14.26 C 7.06 g/m*3 14.26 C 0 km/h
622 17-09-2010 21:00:00 13.48 C 7.15 g/m*3 13.48 C 0 km/h
623 17-09-2010 22:00:00 13.34 C 6.72 g/m*3 13.34 C 0 km/h
624 17-09-2010 23:00:00 12.58 C 6.81 g/m*3 12.58 C 0 km/h
625 18-09-2010 00:00:00 12.12 C 6.94 g/m*3 12.12 C 0 km/h
Sensor: Nr:Datum:Temp:Abs-Feuchte:Windchill:Wind:
Aussen-T/F 626 18-09-2010 01:00:00 10.9 C 7 g/m*3 10.9 C 0 km/h
627 18-09-2010 02:00:00 10 C 7.2 g/m*3 10 C 0 km/h
628 18-09-2010 03:00:00 9.38 C 7.3 g/m*3 9.38 C 0 km/h
629 18-09-2010 04:00:00 8.54 C 7.19 g/m*3 8.54 C 0 km/h
630 18-09-2010 05:00:00 7.94 C 7.18 g/m*3 7.94 C 0 km/h
631 18-09-2010 06:00:00 7.62 C 7.36 g/m*3 7.62 C 0 km/h
632 18-09-2010 07:00:00 7.5 C 7.3 g/m*3 7.5 C 0 km/h
633 18-09-2010 08:00:00 7.46 C 7.23 g/m*3 7.46 C 0 km/h
634 18-09-2010 09:00:00 8.12 C 7.55 g/m*3 8.12 C 0 km/h
635 18-09-2010 10:00:00 10.2 C 8.18 g/m*3 10.2 C 0 km/h
636 18-09-2010 11:00:00 13.46 C 6.65 g/m*3 13.46 C 0 km/h
637 18-09-2010 12:00:00 15.14 C 5.92 g/m*3 15.14 C 0 km/h
638 18-09-2010 13:00:00 15.6 C 5.43 g/m*3 15.6 C 0 km/h
639 18-09-2010 14:00:00 15.26 C 4.77 g/m*3 15.26 C 0 km/h
640 18-09-2010 15:00:00 16.3 C 4.58 g/m*3 16.3 C 0 km/h
641 18-09-2010 16:00:00 16.22 C 4.86 g/m*3 16.22 C 0 km/h
642 18-09-2010 17:00:00 15.86 C 5.73 g/m*3 15.86 C 0 km/h
643 18-09-2010 18:00:00 15.66 C 6.06 g/m*3 15.66 C 0 km/h
644 18-09-2010 19:00:00 13.26 C 6.08 g/m*3 13.26 C 0 km/h
645 18-09-2010 20:00:00 11.08 C 6.6 g/m*3 11.08 C 0 km/h
646 18-09-2010 21:00:00 10.02 C 6.62 g/m*3 10.02 C 0 km/h
647 18-09-2010 22:00:00 8.98 C 6.69 g/m*3 8.98 C 0 km/h
648 18-09-2010 23:00:00 8.2 C 6.77 g/m*3 8.2 C 0 km/h
649 19-09-2010 00:00:00 7.56 C 6.72 g/m*3 7.56 C 0 km/h
650 19-09-2010 01:00:00 6.92 C 6.54 g/m*3 6.92 C 0 km/h
Sensor: Nr:Datum:Temp:Abs-Feuchte:Windchill:Wind:
Aussen-T/F 651 19-09-2010 02:00:00 6.44 C 6.53 g/m*3 6.44 C 0 km/h
652 19-09-2010 03:00:00 6.42 C 6.57 g/m*3 6.42 C 0 km/h
653 19-09-2010 04:00:00 6.2 C 6.5 g/m*3 6.2 C 0 km/h
654 19-09-2010 05:00:00 6.04 C 6.42 g/m*3 6.04 C 0 km/h
655 19-09-2010 06:00:00 5.76 C 6.33 g/m*3 5.76 C 0 km/h
656 19-09-2010 07:00:00 6 C 6.46 g/m*3 6 C 0 km/h
657 19-09-2010 08:00:00 6.96 C 6.79 g/m*3 6.96 C 0 km/h
658 19-09-2010 09:00:00 8.12 C 6.98 g/m*3 8.12 C 0 km/h
659 19-09-2010 10:00:00 10.72 C 6.69 g/m*3 10.72 C 0 km/h
660 19-09-2010 11:00:00 12.92 C 6.27 g/m*3 12.92 C 0 km/h
661 19-09-2010 12:00:00 14.94 C 5.67 g/m*3 14.94 C 0 km/h
662 19-09-2010 13:00:00 16.12 C 5.54 g/m*3 16.12 C 0 km/h
663 19-09-2010 14:00:00 17.38 C 5.68 g/m*3 17.38 C 0 km/h
664 19-09-2010 15:00:00 18.62 C 5.45 g/m*3 18.62 C 0 km/h
665 19-09-2010 16:00:00 19.04 C 5.29 g/m*3 19.04 C 0 km/h
666 19-09-2010 17:00:00 18.78 C 5.69 g/m*3 18.78 C 0 km/h
667 19-09-2010 18:00:00 17.08 C 5.99 g/m*3 17.08 C 0 km/h
668 19-09-2010 19:00:00 15.78 C 5.97 g/m*3 15.78 C 0 km/h
669 19-09-2010 20:00:00 14.46 C 6.3 g/m*3 14.46 C 0 km/h
670 19-09-2010 21:00:00 13.96 C 6.62 g/m*3 13.96 C 0 km/h
671 19-09-2010 22:00:00 13.32 C 6.78 g/m*3 13.32 C 0 km/h
672 19-09-2010 23:00:00 12.28 C 6.77 g/m*3 12.28 C 0 km/h
673 20-09-2010 00:00:00 11.68 C 6.87 g/m*3 11.68 C 0 km/h
674 20-09-2010 01:00:00 10.44 C 6.78 g/m*3 10.44 C 0 km/h
675 20-09-2010 02:00:00 9.84 C 6.88 g/m*3 9.84 C 0 km/h
Sensor: Nr:Datum:Temp:Abs-Feuchte:Windchill:Wind:
Aussen-T/F 676 20-09-2010 03:00:00 9.64 C 7.02 g/m*3 9.64 C 0 km/h
677 20-09-2010 04:00:00 8.98 C 6.89 g/m*3 8.98 C 0 km/h
678 20-09-2010 05:00:00 8.32 C 6.89 g/m*3 8.32 C 0 km/h
679 20-09-2010 06:00:00 8.48 C 7.03 g/m*3 8.48 C 0 km/h
680 20-09-2010 07:00:00 8.52 C 7.1 g/m*3 8.52 C 0 km/h
681 20-09-2010 08:00:00 9.18 C 6.87 g/m*3 9.18 C 0 km/h
682 20-09-2010 09:00:00 9.84 C 6.92 g/m*3 9.84 C 0 km/h
683 20-09-2010 10:00:00 12.4 C 7.21 g/m*3 12.4 C 0 km/h
684 20-09-2010 11:00:00 14.62 C 6.99 g/m*3 14.62 C 0 km/h
685 20-09-2010 12:00:00 16.26 C 6.34 g/m*3 16.26 C 0 km/h
686 20-09-2010 13:00:00 18.02 C 6.12 g/m*3 18.02 C 0 km/h
687 20-09-2010 14:00:00 20.02 C 5.81 g/m*3 20.02 C 0 km/h
688 20-09-2010 15:00:00 21.42 C 5.86 g/m*3 21.42 C 0 km/h
689 20-09-2010 16:00:00 22.46 C 6.22 g/m*3 22.46 C 0 km/h
690 20-09-2010 17:00:00 22.28 C 6.11 g/m*3 22.28 C 0 km/h
691 20-09-2010 18:00:00 21.3 C 6.67 g/m*3 21.3 C 0 km/h
692 20-09-2010 19:00:00 17.5 C 7.19 g/m*3 17.5 C 0 km/h
693 20-09-2010 20:00:00 15.34 C 7.54 g/m*3 15.34 C 0 km/h
694 20-09-2010 21:00:00 14.2 C 7.72 g/m*3 14.2 C 0 km/h
695 20-09-2010 22:00:00 13.22 C 8.07 g/m*3 13.22 C 0 km/h
696 20-09-2010 23:00:00 12.28 C 8.05 g/m*3 12.28 C 0 km/h
697 21-09-2010 00:00:00 11.52 C 7.88 g/m*3 11.52 C 0 km/h
698 21-09-2010 01:00:00 10.9 C 7.8 g/m*3 10.9 C 0 km/h
699 21-09-2010 02:00:00 10.24 C 7.69 g/m*3 10.24 C 0 km/h
700 21-09-2010 03:00:00 9.74 C 7.71 g/m*3 9.74 C 0 km/h
Sensor: Nr:Datum:Temp:Abs-Feuchte:Windchill:Wind:
Aussen-T/F 701 21-09-2010 04:00:00 9.22 C 7.51 g/m*3 9.22 C 0 km/h
702 21-09-2010 05:00:00 8.78 C 7.46 g/m*3 8.78 C 0 km/h
703 21-09-2010 06:00:00 8.34 C 7.37 g/m*3 8.34 C 0 km/h
704 21-09-2010 07:00:00 8.14 C 7.34 g/m*3 8.14 C 0 km/h
705 21-09-2010 08:00:00 8.26 C 7.53 g/m*3 8.26 C 0 km/h
706 21-09-2010 09:00:00 9.18 C 7.97 g/m*3 9.18 C 0 km/h
707 21-09-2010 10:00:00 11.12 C 8.71 g/m*3 11.12 C 0 km/h
708 21-09-2010 11:00:00 14.12 C 8.65 g/m*3 14.12 C 0 km/h
709 21-09-2010 12:00:00 16.14 C 8.99 g/m*3 16.14 C 0 km/h
710 21-09-2010 13:00:00 17.02 C 9.65 g/m*3 17.02 C 0 km/h
711 21-09-2010 14:00:00 17.82 C 9.48 g/m*3 17.82 C 0 km/h
712 21-09-2010 15:00:00 23.12 C 8.2 g/m*3 23.12 C 0 km/h
713 21-09-2010 16:00:00 25.16 C 7.62 g/m*3 25.16 C 0 km/h
714 21-09-2010 17:00:00 24.6 C 7.56 g/m*3 24.6 C 0 km/h
715 21-09-2010 18:00:00 22.18 C 7.88 g/m*3 22.18 C 0 km/h
716 21-09-2010 19:00:00 18.64 C 8.36 g/m*3 18.64 C 0 km/h
717 21-09-2010 20:00:00 16.3 C 8.52 g/m*3 16.3 C 0 km/h
718 21-09-2010 21:00:00 15.06 C 8.49 g/m*3 15.06 C 0 km/h
719 21-09-2010 22:00:00 13.9 C 8.51 g/m*3 13.9 C 0 km/h
720 21-09-2010 23:00:00 12.98 C 8.54 g/m*3 12.98 C 0 km/h
721 22-09-2010 00:00:00 12.2 C 8.55 g/m*3 12.2 C 0 km/h
722 22-09-2010 01:00:00 11.5 C 8.41 g/m*3 11.5 C 0 km/h
723 22-09-2010 02:00:00 10.78 C 8.15 g/m*3 10.78 C 0 km/h
724 22-09-2010 03:00:00 10.22 C 8 g/m*3 10.22 C 0 km/h
725 22-09-2010 04:00:00 9.72 C 7.94 g/m*3 9.72 C 0 km/h
Sensor: Nr:Datum:Temp:Abs-Feuchte:Windchill:Wind:
Aussen-T/F 726 22-09-2010 05:00:00 9.84 C 8.15 g/m*3 9.84 C 0 km/h
727 22-09-2010 06:00:00 9.78 C 8.15 g/m*3 9.78 C 0 km/h
728 22-09-2010 07:00:00 9.56 C 8.04 g/m*3 9.56 C 0 km/h
729 22-09-2010 08:00:00 9.36 C 7.96 g/m*3 9.36 C 0 km/h
730 22-09-2010 09:00:00 10.18 C 8.15 g/m*3 10.18 C 0 km/h
731 22-09-2010 10:00:00 12.42 C 8.64 g/m*3 12.42 C 0 km/h
732 22-09-2010 11:00:00 13.78 C 9.19 g/m*3 13.78 C 0 km/h
733 22-09-2010 12:00:00 16.54 C 9.97 g/m*3 16.54 C 0 km/h
734 22-09-2010 13:00:00 19.76 C 10.09 g/m*3 19.76 C 0 km/h
735 22-09-2010 14:00:00 22.86 C 10.07 g/m*3 22.86 C 0 km/h
736 22-09-2010 15:00:00 25.06 C 9.29 g/m*3 25.06 C 0 km/h
737 22-09-2010 16:00:00 27.32 C 8.59 g/m*3 27.32 C 0 km/h
738 22-09-2010 17:00:00 27.06 C 8.16 g/m*3 27.06 C 0 km/h
739 22-09-2010 18:00:00 24.88 C 9.1 g/m*3 24.88 C 0 km/h
740 22-09-2010 19:00:00 20.88 C 9.2 g/m*3 20.88 C 0 km/h
741 22-09-2010 20:00:00 18.54 C 9.1 g/m*3 18.54 C 0 km/h
742 22-09-2010 21:00:00 17.46 C 9.31 g/m*3 17.46 C 0 km/h
743 22-09-2010 22:00:00 16.18 C 9.26 g/m*3 16.18 C 0 km/h
744 22-09-2010 23:00:00 14.92 C 8.78 g/m*3 14.92 C 0 km/h

Maximal/Minimal-Werte vom 23.08.2010 - 22.09.2010

Sensor Min Max Avg
Temp
(Aussen-T/F)
5.5 °C
19-09-2010  06:04:05
28 °C
11-09-2010  17:09:02
15.64 °C
Abs-Feuchte
(Aussen-T/F)
4.32 g/m*3
06-09-2010  16:00:00
15.61 g/m*3
23-08-2010  12:00:00
8.64 g/m*3
Windchill
(Aussen-T/F)
5.76 C
19-09-2010  06:00:00
27.62 C
11-09-2010  17:00:00
15.62 C

Die Daten stammen von einer Davis Vantage Pro 2 Wetter-Station und werden unter Linux mit der Software wview2wettercgi und aufbereitet. Alle Angaben erfolgen ohne Gewähr für ihre Vollständigkeit oder Richtigkeit.
Kontakt: Rainer Krienke krienke@uni-koblenz.de . Meine Webseiten an der Uni Koblenz oder privat.
Version: $Revision: 0.78 $